createdAt,value
2018-06-02T00:01:06.630Z,58.40
2018-06-02T00:03:34.830Z,52.23
2018-06-02T00:06:03.057Z,53.70
2018-06-02T00:08:31.270Z,55.73
2018-06-02T00:10:59.488Z,57.23
2018-06-02T00:13:28.481Z,63.27
2018-06-02T00:15:56.698Z,64.90
2018-06-02T00:18:25.031Z,65.67
2018-06-02T00:20:53.256Z,72.03
2018-06-02T00:23:22.284Z,67.80
2018-06-02T00:25:51.275Z,74.03
2018-06-02T00:28:20.254Z,80.60
2018-06-02T00:30:48.466Z,72.67
2018-06-02T00:33:16.702Z,78.60
2018-06-02T00:35:45.736Z,79.97
2018-06-02T00:38:13.952Z,77.47
2018-06-02T00:40:42.170Z,90.57
2018-06-02T00:43:10.455Z,87.27
2018-06-02T00:45:38.690Z,88.27
2018-06-02T00:48:07.700Z,103.40
2018-06-02T00:50:36.718Z,98.10
2018-06-02T00:53:04.955Z,124.37
2018-06-02T00:55:33.964Z,119.67
2018-06-02T00:58:02.951Z,110.47
2018-06-02T01:00:31.926Z,112.20
2018-06-02T01:03:00.943Z,114.13
2018-06-02T01:05:29.216Z,128.10
2018-06-02T01:07:57.403Z,128.77
2018-06-02T01:10:25.682Z,109.30
2018-06-02T01:12:53.943Z,103.03
2018-06-02T01:15:22.221Z,101.67
2018-06-02T01:17:50.426Z,100.67
2018-06-02T01:20:18.654Z,106.33
2018-06-02T01:22:46.947Z,98.73
2018-06-02T01:25:15.179Z,98.70
2018-06-02T01:27:43.393Z,89.40
2018-06-02T01:30:11.613Z,90.30
2018-06-02T01:32:39.843Z,104.97
2018-06-02T01:35:08.062Z,96.63
2018-06-02T01:37:36.437Z,98.97
2018-06-02T01:40:04.643Z,103.57
2018-06-02T01:42:33.852Z,103.13
2018-06-02T01:45:02.118Z,103.30
2018-06-02T01:47:31.082Z,94.10
2018-06-02T01:50:00.085Z,99.23
2018-06-02T01:52:28.311Z,105.60
2018-06-02T01:54:56.644Z,108.30
2018-06-02T01:57:25.634Z,109.97
2018-06-02T01:59:54.641Z,110.13
2018-06-02T02:02:23.626Z,105.33
2018-06-02T02:04:51.858Z,110.27
2018-06-02T02:07:20.081Z,112.00
2018-06-02T02:09:48.320Z,110.53
2018-06-02T02:12:16.538Z,111.10
2018-06-02T02:14:44.779Z,109.17
2018-06-02T02:17:13.769Z,103.33
2018-06-02T02:19:42.782Z,100.60
2018-06-02T02:22:11.060Z,110.40
2018-06-02T02:24:39.292Z,100.83
2018-06-02T02:27:07.603Z,98.57
2018-06-02T02:29:36.710Z,102.27
2018-06-02T02:32:04.976Z,105.17
2018-06-02T02:34:33.206Z,107.87
2018-06-02T02:37:01.458Z,108.10
2018-06-02T02:39:29.843Z,109.60
2018-06-02T02:41:58.063Z,106.60
2018-06-02T02:44:27.091Z,103.00
2018-06-02T02:46:55.333Z,96.27
2018-06-02T02:49:23.609Z,105.80
2018-06-02T02:51:51.851Z,105.03
2018-06-02T02:54:20.167Z,124.80
2018-06-02T02:56:48.441Z,104.13
2018-06-02T02:59:16.681Z,106.10
2018-06-02T03:01:45.672Z,125.20
2018-06-02T03:04:13.890Z,132.87
2018-06-02T03:06:42.146Z,122.80
2018-06-02T03:09:11.235Z,126.30
2018-06-02T03:11:39.486Z,140.80
2018-06-02T03:14:08.482Z,128.10
2018-06-02T03:16:37.482Z,138.97
2018-06-02T03:19:07.396Z,124.57
2018-06-02T03:21:36.720Z,137.33
2018-06-02T03:24:05.006Z,135.53
2018-06-02T03:26:33.231Z,126.80
2018-06-02T03:29:02.221Z,140.43
2018-06-02T03:31:31.221Z,137.60
2018-06-02T03:34:00.225Z,143.20
2018-06-02T03:36:29.225Z,137.63
2018-06-02T03:38:57.521Z,154.90
2018-06-02T03:41:25.748Z,154.53
2018-06-02T03:43:54.769Z,150.97
2018-06-02T03:46:24.135Z,146.53
2018-06-02T03:48:52.389Z,138.23
2018-06-02T03:51:20.609Z,134.50
2018-06-02T03:53:49.627Z,137.43
2018-06-02T03:56:17.845Z,130.20
2018-06-02T03:58:46.121Z,139.73
2018-06-02T04:01:14.349Z,136.70
2018-06-02T04:03:42.850Z,128.60
2018-06-02T04:06:11.090Z,135.63
2018-06-02T04:08:39.352Z,133.33
2018-06-02T04:11:08.570Z,117.83
2018-06-02T04:13:36.806Z,125.17
2018-06-02T04:16:05.786Z,125.70
2018-06-02T04:18:34.104Z,129.17
2018-06-02T04:21:02.325Z,123.00
2018-06-02T04:23:30.641Z,127.60
2018-06-02T04:25:58.889Z,133.60
2018-06-02T04:28:27.162Z,120.07
2018-06-02T04:30:55.365Z,124.03
2018-06-02T04:33:23.634Z,121.37
2018-06-02T04:35:51.853Z,120.63
2018-06-02T04:38:20.097Z,126.40
2018-06-02T04:40:48.309Z,123.77
2018-06-02T04:43:16.669Z,129.93
2018-06-02T04:45:44.932Z,124.57
2018-06-02T04:48:13.214Z,116.87
2018-06-02T04:50:41.467Z,121.53
2018-06-02T04:53:09.734Z,126.97
2018-06-02T04:55:37.954Z,130.00
2018-06-02T04:58:06.176Z,126.50
2018-06-02T05:00:35.198Z,123.83
2018-06-02T05:03:03.442Z,125.13
2018-06-02T05:05:32.443Z,142.07
2018-06-02T05:08:00.673Z,123.33
2018-06-02T05:10:28.992Z,139.67
2018-06-02T05:12:58.078Z,137.73
2018-06-02T05:15:26.362Z,142.30
2018-06-02T05:17:54.637Z,154.57
2018-06-02T05:20:22.851Z,140.87
2018-06-02T05:22:51.086Z,134.17
2018-06-02T05:25:19.312Z,142.03
2018-06-02T05:27:47.550Z,140.90
2018-06-02T05:30:15.814Z,144.93
2018-06-02T05:32:44.968Z,138.70
2018-06-02T05:35:14.831Z,137.10
2018-06-02T05:37:43.796Z,133.43
2018-06-02T05:40:12.040Z,132.60
2018-06-02T05:42:41.067Z,150.40
2018-06-02T05:45:09.333Z,147.27
2018-06-02T05:47:38.430Z,158.53
2018-06-02T05:50:06.701Z,153.13
2018-06-02T05:52:34.924Z,153.20
2018-06-02T05:55:03.136Z,158.37
2018-06-02T05:57:32.145Z,155.70
2018-06-02T06:00:00.459Z,166.17
2018-06-02T06:02:28.691Z,150.57
2018-06-02T06:04:56.929Z,161.00
2018-06-02T06:07:25.241Z,158.40
2018-06-02T06:09:53.513Z,165.77
2018-06-02T06:12:21.994Z,163.50
2018-06-02T06:14:50.209Z,166.30
2018-06-02T06:17:18.442Z,165.80
2018-06-02T06:19:47.539Z,183.63
2018-06-02T06:22:16.519Z,187.50
2018-06-02T06:24:45.548Z,187.07
2018-06-02T06:27:13.789Z,171.43
2018-06-02T06:29:42.789Z,197.03
2018-06-02T06:32:11.092Z,194.43
2018-06-02T06:34:39.311Z,181.53
2018-06-02T06:37:08.331Z,182.70
2018-06-02T06:39:37.294Z,186.90
2018-06-02T06:42:05.514Z,164.57
2018-06-02T06:44:33.876Z,165.77
2018-06-02T06:47:02.807Z,158.20
2018-06-02T06:49:31.031Z,148.80
2018-06-02T06:51:59.301Z,153.77
2018-06-02T06:54:27.576Z,141.73
2018-06-02T06:56:56.679Z,126.70
2018-06-02T06:59:24.972Z,129.57
2018-06-02T07:01:53.226Z,127.30
2018-06-02T07:04:21.495Z,126.73
2018-06-02T07:06:50.509Z,123.53
2018-06-02T07:09:18.762Z,129.17
2018-06-02T07:11:47.069Z,117.87
2018-06-02T07:14:16.766Z,113.60
2018-06-02T07:16:44.974Z,111.77
2018-06-02T07:19:13.226Z,110.43
2018-06-02T07:21:41.512Z,117.40
2018-06-02T07:24:09.686Z,119.07
2018-06-02T07:26:37.925Z,129.37
2018-06-02T07:29:06.160Z,125.10
2018-06-02T07:31:34.380Z,119.83
2018-06-02T07:34:02.607Z,130.73
2018-06-02T07:36:30.917Z,131.87
2018-06-02T07:38:59.182Z,120.67
2018-06-02T07:41:27.490Z,120.17
2018-06-02T07:43:55.717Z,120.87
2018-06-02T07:46:24.717Z,125.37
2018-06-02T07:48:53.737Z,116.27
2018-06-02T07:51:21.997Z,133.57
2018-06-02T07:53:50.376Z,123.57
2018-06-02T07:56:18.654Z,128.77
2018-06-02T07:58:46.881Z,121.03
2018-06-02T08:01:15.118Z,139.73
2018-06-02T08:03:43.334Z,110.10
2018-06-02T08:06:11.648Z,104.40
2018-06-02T08:08:39.938Z,99.17
2018-06-02T08:11:08.910Z,94.20
2018-06-02T08:13:37.188Z,84.77
2018-06-02T08:16:05.392Z,78.63
2018-06-02T08:18:33.619Z,74.63
2018-06-02T08:21:02.645Z,69.93
2018-06-02T08:23:30.907Z,71.10
2018-06-02T08:25:59.175Z,72.20
2018-06-02T08:28:28.167Z,67.33
2018-06-02T08:30:57.150Z,61.83
2018-06-02T08:33:27.497Z,61.80
2018-06-02T08:35:55.770Z,54.00
2018-06-02T08:38:23.977Z,55.07
2018-06-02T08:40:52.218Z,44.43
2018-06-02T08:43:20.446Z,46.67
2018-06-02T08:45:48.693Z,41.17
2018-06-02T08:48:16.890Z,44.03
2018-06-02T08:50:45.118Z,39.70
2018-06-02T08:53:13.346Z,48.87
2018-06-02T08:55:42.334Z,39.83
2018-06-02T08:58:11.356Z,36.33
2018-06-02T09:00:39.586Z,37.50
2018-06-02T09:03:07.894Z,30.90
2018-06-02T09:05:36.910Z,31.30
2018-06-02T09:08:05.130Z,33.93
2018-06-02T09:10:33.358Z,27.67
2018-06-02T09:13:01.611Z,31.87
2018-06-02T09:15:30.631Z,29.10
2018-06-02T09:17:59.692Z,32.40
2018-06-02T09:20:28.712Z,27.20
2018-06-02T09:22:56.971Z,27.37
2018-06-02T09:25:25.244Z,25.40
2018-06-02T09:27:53.471Z,27.67
2018-06-02T09:30:21.689Z,41.47
2018-06-02T09:32:50.888Z,27.13
2018-06-02T09:35:19.146Z,40.27
2018-06-02T09:37:48.855Z,25.77
2018-06-02T09:40:17.852Z,26.17
2018-06-02T09:42:47.790Z,28.97
2018-06-02T09:45:16.060Z,26.23
2018-06-02T09:47:45.106Z,30.90
2018-06-02T09:50:13.262Z,33.00
2018-06-02T09:52:41.594Z,30.03
2018-06-02T09:55:09.890Z,31.70
2018-06-02T09:57:38.135Z,29.60
2018-06-02T10:00:06.357Z,27.37
2018-06-02T10:02:34.672Z,27.30
2018-06-02T10:05:03.701Z,30.30
2018-06-02T10:07:31.945Z,26.87
2018-06-02T10:10:00.938Z,28.83
2018-06-02T10:12:29.196Z,27.43
2018-06-02T10:14:57.486Z,27.50
2018-06-02T10:17:26.601Z,28.80
2018-06-02T10:19:54.840Z,25.70
2018-06-02T10:22:23.069Z,24.63
2018-06-02T10:24:51.282Z,30.97
2018-06-02T10:27:19.597Z,22.50
2018-06-02T10:29:47.845Z,25.63
2018-06-02T10:32:16.860Z,28.20
2018-06-02T10:34:45.127Z,24.90
2018-06-02T10:37:13.353Z,23.40
2018-06-02T10:39:42.692Z,23.60
2018-06-02T10:42:11.864Z,23.17
2018-06-02T10:44:40.392Z,24.20
2018-06-02T10:47:08.626Z,19.90
2018-06-02T10:49:36.835Z,19.10
2018-06-02T10:52:05.062Z,17.67
2018-06-02T10:54:33.371Z,19.93
2018-06-02T10:57:02.661Z,18.13
2018-06-02T10:59:30.932Z,17.10
2018-06-02T11:01:59.893Z,16.80
2018-06-02T11:04:28.238Z,18.53
2018-06-02T11:06:56.583Z,15.73
2018-06-02T11:09:24.894Z,20.40
2018-06-02T11:11:53.681Z,18.50
2018-06-02T11:14:21.917Z,17.30
2018-06-02T11:16:50.931Z,17.73
2018-06-02T11:19:19.492Z,17.57
2018-06-02T11:21:48.466Z,18.60
2018-06-02T11:24:17.445Z,19.73
2018-06-02T11:26:45.745Z,17.73
2018-06-02T11:29:14.734Z,20.47
2018-06-02T11:31:43.722Z,15.40
2018-06-02T11:34:12.766Z,16.47
2018-06-02T11:36:40.990Z,16.87
2018-06-02T11:39:09.982Z,16.80
2018-06-02T11:41:39.465Z,18.70
2018-06-02T11:44:07.695Z,16.97
2018-06-02T11:46:36.752Z,16.23
2018-06-02T11:49:06.089Z,17.87
2018-06-02T11:51:34.344Z,23.23
2018-06-02T11:54:02.645Z,17.00
2018-06-02T11:56:30.869Z,17.80
2018-06-02T11:58:59.853Z,17.60
2018-06-02T12:01:29.850Z,17.30
2018-06-02T12:03:58.038Z,16.50
2018-06-02T12:06:26.545Z,15.47
2018-06-02T12:08:54.753Z,18.20
2018-06-02T12:11:23.070Z,22.27
2018-06-02T12:13:52.147Z,19.30
2018-06-02T12:16:31.642Z,22.80
2018-06-02T12:19:01.129Z,19.63
2018-06-02T12:21:29.393Z,22.87
2018-06-02T12:23:59.417Z,17.97
2018-06-02T12:26:27.642Z,19.73
2018-06-02T12:28:55.965Z,20.33
2018-06-02T12:31:24.178Z,22.33
2018-06-02T12:33:52.401Z,17.63
2018-06-02T12:36:21.406Z,21.43
2018-06-02T12:38:49.610Z,17.90
2018-06-02T12:41:17.843Z,17.43
2018-06-02T12:43:46.823Z,20.00
2018-06-02T12:46:15.850Z,19.90
2018-06-02T12:48:44.086Z,23.37
2018-06-02T12:51:12.377Z,18.80
2018-06-02T12:53:41.367Z,16.97
2018-06-02T12:56:10.364Z,16.43
2018-06-02T12:58:39.353Z,16.57
2018-06-02T13:01:08.342Z,14.20
2018-06-02T13:03:37.338Z,17.60
2018-06-02T13:06:06.331Z,15.27
2018-06-02T13:08:35.303Z,13.00
2018-06-02T13:11:03.589Z,13.60
2018-06-02T13:13:32.791Z,15.03
2018-06-02T13:16:01.770Z,18.20
2018-06-02T13:18:30.776Z,18.33
2018-06-02T13:20:59.002Z,14.40
2018-06-02T13:23:27.229Z,16.43
2018-06-02T13:25:55.474Z,15.00
2018-06-02T13:28:23.695Z,13.30
2018-06-02T13:30:51.947Z,17.17
2018-06-02T13:33:20.942Z,16.00
2018-06-02T13:35:49.179Z,15.17
2018-06-02T13:38:17.392Z,16.13
2018-06-02T13:40:45.601Z,15.73
2018-06-02T13:43:13.841Z,15.60
2018-06-02T13:45:42.105Z,15.90
2018-06-02T13:48:10.382Z,15.60
2018-06-02T13:50:38.610Z,14.80
2018-06-02T13:53:06.926Z,14.40
2018-06-02T13:55:35.925Z,14.67
2018-06-02T13:58:04.147Z,14.20
2018-06-02T14:00:32.361Z,15.03
2018-06-02T14:03:02.051Z,14.47
2018-06-02T14:05:30.273Z,13.57
2018-06-02T14:07:58.522Z,11.70
2018-06-02T14:10:26.752Z,13.87
2018-06-02T14:12:54.975Z,16.53
2018-06-02T14:20:37.902Z,12.40
2018-06-02T14:23:06.124Z,12.97
2018-06-02T14:25:34.338Z,15.50
2018-06-02T14:28:02.537Z,12.90
2018-06-02T14:30:31.528Z,13.10
2018-06-02T14:32:59.727Z,14.20
2018-06-02T14:35:27.932Z,11.47
2018-06-02T14:37:56.162Z,12.10
2018-06-02T14:40:25.120Z,10.50
2018-06-02T14:42:53.333Z,14.70
2018-06-02T14:45:22.303Z,12.33
2018-06-02T14:47:50.532Z,18.87
2018-06-02T14:50:18.747Z,10.77
2018-06-02T14:52:46.957Z,12.43
2018-06-02T14:55:15.949Z,14.23
2018-06-02T14:57:44.137Z,12.73
2018-06-02T15:00:12.360Z,12.50
2018-06-02T15:02:40.569Z,16.90
2018-06-02T15:05:09.539Z,18.33
2018-06-02T15:07:37.737Z,11.50
2018-06-02T15:10:06.720Z,13.90
2018-06-02T15:12:34.945Z,12.27
2018-06-02T15:15:03.154Z,12.70
2018-06-02T15:17:31.618Z,11.23
2018-06-02T15:19:59.821Z,12.73
2018-06-02T15:22:28.019Z,14.17
2018-06-02T15:24:57.005Z,12.73
2018-06-02T15:27:25.984Z,16.33
2018-06-02T15:29:54.345Z,13.90
2018-06-02T15:32:22.573Z,20.77
2018-06-02T15:34:50.778Z,17.90
2018-06-02T15:37:19.000Z,16.20
2018-06-02T15:39:48.000Z,18.30
2018-06-02T15:42:17.002Z,17.80
2018-06-02T15:44:45.974Z,16.27
2018-06-02T15:47:14.961Z,18.40
2018-06-02T15:49:43.168Z,17.07
2018-06-02T15:52:12.153Z,19.93
2018-06-02T15:54:41.121Z,16.10
2018-06-02T15:57:09.359Z,24.93
2018-06-02T15:59:37.596Z,14.13
2018-06-02T16:02:05.794Z,14.37
2018-06-02T16:04:33.999Z,12.93
2018-06-02T16:07:02.208Z,18.90
2018-06-02T16:09:31.203Z,13.03
2018-06-02T16:12:00.178Z,11.53
2018-06-02T16:14:28.364Z,9.87
2018-06-02T16:16:57.348Z,13.00
2018-06-02T16:19:25.579Z,13.77
2018-06-02T16:21:53.784Z,12.60
2018-06-02T16:24:21.972Z,13.37
2018-06-02T16:26:50.175Z,12.07
2018-06-02T16:29:19.165Z,8.87
2018-06-02T16:31:48.134Z,11.30
2018-06-02T16:34:16.341Z,12.50
2018-06-02T16:36:44.544Z,10.77
2018-06-02T16:39:12.757Z,9.87
2018-06-02T16:41:40.949Z,11.70
2018-06-02T16:44:09.933Z,12.87
2018-06-02T16:46:38.138Z,12.97
2018-06-02T16:49:06.340Z,13.63
2018-06-02T16:51:35.109Z,13.60
2018-06-02T16:54:03.597Z,19.60
2018-06-02T16:56:31.798Z,15.50
2018-06-02T16:59:00.000Z,13.43
2018-06-02T17:01:28.236Z,14.67
2018-06-02T17:03:56.447Z,14.63
2018-06-02T17:06:24.777Z,15.37
2018-06-02T17:08:52.999Z,16.33
2018-06-02T17:11:21.203Z,17.00
2018-06-02T17:13:50.188Z,14.60
2018-06-02T17:16:19.202Z,14.53
2018-06-02T17:18:48.156Z,15.60
2018-06-02T17:21:16.368Z,15.63
2018-06-02T17:23:44.580Z,15.87
2018-06-02T17:26:12.793Z,15.07
2018-06-02T17:28:41.765Z,16.07
2018-06-02T17:31:09.995Z,14.53
2018-06-02T17:33:38.957Z,15.90
2018-06-02T17:36:07.928Z,15.20
2018-06-02T17:38:36.149Z,16.20
2018-06-02T17:41:04.353Z,18.93
2018-06-02T17:43:32.580Z,22.43
2018-06-02T17:46:01.561Z,19.73
2018-06-02T17:48:29.760Z,15.97
2018-06-02T17:50:57.975Z,17.57
2018-06-02T17:53:26.225Z,19.87
2018-06-02T17:55:54.421Z,17.40
2018-06-02T17:58:22.748Z,16.90
2018-06-02T18:00:50.930Z,17.20
2018-06-02T18:03:19.914Z,18.43
2018-06-02T18:05:48.885Z,16.27
2018-06-02T18:08:17.088Z,15.17
2018-06-02T18:10:46.078Z,15.00
2018-06-02T18:13:15.045Z,18.37
2018-06-02T18:15:43.249Z,20.50
2018-06-02T18:18:12.669Z,17.70
2018-06-02T18:20:40.876Z,18.77
2018-06-02T18:23:09.086Z,17.07
2018-06-02T18:25:37.297Z,18.10
2018-06-02T18:28:05.531Z,17.17
2018-06-02T18:30:33.738Z,16.93
2018-06-02T18:33:01.946Z,16.53
2018-06-02T18:35:30.163Z,20.20
2018-06-02T18:37:58.384Z,17.33
2018-06-02T18:40:26.607Z,20.07
2018-06-02T18:42:54.839Z,16.40
2018-06-02T18:45:23.044Z,22.20
2018-06-02T18:47:51.269Z,19.00
2018-06-02T18:50:19.481Z,24.17
2018-06-02T18:52:47.680Z,17.70
2018-06-02T18:55:15.887Z,18.37
2018-06-02T18:57:44.101Z,18.57
2018-06-02T19:00:12.321Z,19.03
2018-06-02T19:02:41.541Z,18.30
2018-06-02T19:05:09.746Z,19.57
2018-06-02T19:07:37.953Z,21.67
2018-06-02T19:10:06.186Z,22.23
2018-06-02T19:12:34.415Z,19.60
2018-06-02T19:15:02.619Z,15.50
2018-06-02T19:17:30.840Z,17.33
2018-06-02T19:19:59.048Z,20.27
2018-06-02T19:22:28.035Z,23.70
2018-06-02T19:24:56.254Z,18.47
2018-06-02T19:27:24.478Z,24.10
2018-06-02T19:29:52.679Z,22.27
2018-06-02T19:32:21.680Z,23.70
2018-06-02T19:34:49.893Z,20.13
2018-06-02T19:37:18.093Z,22.00
2018-06-02T19:39:46.309Z,21.70
2018-06-02T19:42:14.518Z,22.27
2018-06-02T19:44:42.734Z,24.70
2018-06-02T19:47:11.707Z,24.00
2018-06-02T19:49:39.919Z,25.63
2018-06-02T19:52:08.123Z,25.57
2018-06-02T19:54:36.321Z,23.40
2018-06-02T19:57:04.556Z,24.03
2018-06-02T19:59:32.758Z,26.27
2018-06-02T20:02:00.988Z,25.23
2018-06-02T20:04:29.976Z,22.97
2018-06-02T20:06:58.948Z,25.37
2018-06-02T20:09:27.165Z,24.90
2018-06-02T20:11:55.373Z,20.90
2018-06-02T20:14:23.588Z,24.40
2018-06-02T20:16:52.555Z,24.20
2018-06-02T20:19:20.784Z,25.43
2018-06-02T20:21:48.998Z,22.87
2018-06-02T20:24:17.209Z,25.20
2018-06-02T20:26:46.194Z,27.70
2018-06-02T20:29:14.416Z,21.83
2018-06-02T20:31:42.612Z,24.57
2018-06-02T20:34:10.826Z,18.83
2018-06-02T20:36:39.816Z,22.07
2018-06-02T20:39:08.016Z,21.63
2018-06-02T20:41:36.249Z,17.03
2018-06-02T20:44:04.480Z,19.67
2018-06-02T20:46:32.685Z,21.27
2018-06-02T20:49:00.884Z,20.23
2018-06-02T20:51:29.105Z,23.97
2018-06-02T20:53:57.310Z,20.53
2018-06-02T20:56:25.519Z,22.50
2018-06-02T20:58:54.500Z,25.43
2018-06-02T21:01:22.719Z,25.27
2018-06-02T21:03:50.932Z,21.70
2018-06-02T21:06:19.137Z,22.10
2018-06-02T21:08:47.405Z,25.07
2018-06-02T21:11:15.568Z,24.67
2018-06-02T21:13:43.791Z,26.83
2018-06-02T21:16:11.984Z,23.37
2018-06-02T21:18:40.196Z,25.80
2018-06-02T21:21:08.412Z,27.90
2018-06-02T21:23:36.624Z,26.20
2018-06-02T21:26:04.828Z,27.40
2018-06-02T21:28:33.047Z,39.40
2018-06-02T21:31:01.266Z,26.90
2018-06-02T21:33:29.490Z,29.60
2018-06-02T21:35:58.472Z,39.30
2018-06-02T21:38:26.686Z,29.57
2018-06-02T21:40:54.881Z,34.17
2018-06-02T21:43:23.109Z,31.80
2018-06-02T21:45:51.304Z,33.13
2018-06-02T21:48:19.524Z,31.60
2018-06-02T21:50:47.747Z,34.77
2018-06-02T21:53:15.972Z,34.43
2018-06-02T21:55:44.170Z,36.83
2018-06-02T21:58:13.472Z,42.10
2018-06-02T22:00:42.954Z,41.77
2018-06-02T22:03:11.188Z,35.67
2018-06-02T22:05:39.417Z,38.53
2018-06-02T22:08:08.382Z,44.87
2018-06-02T22:10:36.936Z,37.03
2018-06-02T22:13:05.130Z,40.97
2018-06-02T22:15:33.331Z,35.13
2018-06-02T22:18:01.545Z,36.17
2018-06-02T22:20:29.750Z,39.20
2018-06-02T22:22:57.981Z,38.57
2018-06-02T22:25:26.950Z,41.07
2018-06-02T22:27:55.152Z,39.07
2018-06-02T22:30:23.388Z,39.33
2018-06-02T22:32:51.585Z,42.50
2018-06-02T22:35:20.554Z,36.73
2018-06-02T22:37:48.792Z,55.50
2018-06-02T22:40:17.019Z,51.20
2018-06-02T22:42:45.241Z,49.87
2018-06-02T22:45:13.465Z,49.13
2018-06-02T22:47:41.688Z,50.47
2018-06-02T22:50:09.970Z,57.30
2018-06-02T22:52:38.433Z,55.93
2018-06-02T22:55:06.660Z,49.57
2018-06-02T22:57:34.866Z,48.37
2018-06-02T23:00:03.824Z,50.13
2018-06-02T23:02:32.061Z,58.23
2018-06-02T23:05:00.269Z,54.17
2018-06-02T23:07:28.530Z,52.43
2018-06-02T23:09:56.712Z,58.30
2018-06-02T23:12:24.914Z,62.83
2018-06-02T23:14:53.140Z,51.00
2018-06-02T23:17:21.341Z,54.70
2018-06-02T23:19:49.553Z,52.33
2018-06-02T23:22:39.768Z,52.13
2018-06-02T23:25:07.985Z,49.17
2018-06-02T23:27:36.190Z,59.73
2018-06-02T23:30:04.391Z,61.03
2018-06-02T23:32:33.355Z,58.30
2018-06-02T23:35:01.572Z,59.90
2018-06-02T23:37:29.778Z,57.73
2018-06-02T23:39:57.998Z,52.20
2018-06-02T23:42:26.966Z,53.30
2018-06-02T23:44:55.172Z,49.60
2018-06-02T23:47:24.149Z,55.43
2018-06-02T23:49:53.121Z,52.83
2018-06-02T23:52:21.343Z,53.23
2018-06-02T23:54:49.545Z,55.03
2018-06-02T23:57:17.769Z,53.20
2018-06-02T23:59:46.739Z,52.77
